Time;durP1;ratioP1;P1;durP2;ratioP2;P2;SDS_P1;SDS_P2;PMS_P1;PMS_P2;Temp;Humidity;BMP_temperature;BMP_pressure;BME280_temperature;BME280_humidity;BME280_pressure;Samples;Min_cycle;Max_cycle;Signal;HPM_P1;HPM_P2
2023/11/03 00:00:49;;;;;;;4.27;3.87;;;;;;;8.18;78.22;93511.94;5027605;28;20492;-68
2023/11/03 00:03:15;;;;;;;4.20;3.33;;;;;;;8.33;77.25;93509.03;5026985;28;20176;-66
2023/11/03 00:05:41;;;;;;;6.00;4.00;;;;;;;8.19;78.22;93516.19;5027358;28;20206;-68
2023/11/03 00:08:08;;;;;;;4.70;3.50;;;;;;;8.31;78.14;93518.78;5027833;28;20687;-66
2023/11/03 00:10:37;;;;;;;4.37;3.73;;;;;;;8.19;77.84;93512.75;5027255;28;20941;-68
2023/11/03 00:13:03;;;;;;;4.90;4.30;;;;;;;8.25;77.79;93520.13;5025651;28;20422;-66
2023/11/03 00:15:29;;;;;;;6.87;3.97;;;;;;;8.15;78.14;93512.19;5026591;28;20523;-66
2023/11/03 00:17:55;;;;;;;4.43;4.03;;;;;;;8.20;78.23;93515.25;5026031;28;20438;-65
2023/11/03 00:20:20;;;;;;;8.27;4.40;;;;;;;8.31;77.46;93506.53;5026133;28;20519;-65
2023/11/03 00:22:46;;;;;;;3.87;2.80;;;;;;;8.18;77.17;93498.06;5026203;28;20275;-66
2023/11/03 00:25:14;;;;;;;4.30;4.00;;;;;;;8.19;77.20;93484.84;5024606;28;20175;-66
2023/11/03 00:27:40;;;;;;;4.27;3.27;;;;;;;8.20;77.84;93477.88;5026296;28;20480;-65
2023/11/03 00:30:08;;;;;;;3.57;3.17;;;;;;;8.12;76.90;93473.25;5026850;28;20406;-68
2023/11/03 00:32:34;;;;;;;5.07;3.37;;;;;;;8.06;77.60;93476.38;5023507;28;20419;-69
2023/11/03 00:34:59;;;;;;;6.77;3.43;;;;;;;8.12;77.72;93473.25;5007448;28;20422;-67
2023/11/03 00:37:25;;;;;;;5.20;3.47;;;;;;;8.21;77.70;93461.22;5007528;28;20815;-68
2023/11/03 00:39:51;;;;;;;8.97;3.83;;;;;;;8.19;77.39;93448.28;5006482;28;20204;-68
2023/11/03 00:42:16;;;;;;;3.50;2.80;;;;;;;8.15;77.24;93438.22;5007754;28;20254;-68
2023/11/03 00:44:42;;;;;;;4.90;3.53;;;;;;;8.16;77.49;93443.31;5007381;28;20266;-67
2023/11/03 00:47:08;;;;;;;4.80;3.83;;;;;;;8.22;76.48;93449.81;5007646;28;20294;-67
2023/11/03 00:49:37;;;;;;;5.33;4.33;;;;;;;8.12;77.40;93460.19;5007512;28;20172;-68
2023/11/03 00:52:04;;;;;;;7.63;4.80;;;;;;;8.15;76.85;93462.56;5007626;28;20833;-69
2023/11/03 00:54:29;;;;;;;4.43;4.03;;;;;;;8.06;77.06;93465.91;5011448;28;20411;-67
2023/11/03 00:56:55;;;;;;;6.03;4.23;;;;;;;8.00;77.41;93469.00;5011093;28;20407;-69
2023/11/03 00:59:21;;;;;;;6.77;4.27;;;;;;;8.05;77.34;93470.31;5011428;28;20911;-67
2023/11/03 01:01:47;;;;;;;12.80;4.80;;;;;;;8.12;77.37;93482.88;5011593;28;20467;-71
2023/11/03 01:04:12;;;;;;;4.60;3.37;;;;;;;8.02;76.57;93490.63;5009198;28;20176;-66
2023/11/03 01:06:39;;;;;;;5.47;3.27;;;;;;;7.80;76.84;93492.34;5010528;28;20187;-67
2023/11/03 01:09:04;;;;;;;6.03;3.87;;;;;;;7.58;77.53;93501.06;5010639;28;20227;-67
2023/11/03 01:11:30;;;;;;;4.83;3.80;;;;;;;7.47;78.33;93511.50;5010432;28;20407;-68
2023/11/03 01:13:56;;;;;;;5.43;3.83;;;;;;;7.33;79.00;93512.56;5010395;28;20176;-68
2023/11/03 01:16:25;;;;;;;5.73;3.20;;;;;;;7.39;78.20;93514.69;5010262;28;20191;-68
2023/11/03 01:18:51;;;;;;;6.43;3.30;;;;;;;7.46;78.37;93519.44;5010044;28;20529;-67
2023/11/03 01:21:18;;;;;;;5.37;3.57;;;;;;;7.64;77.69;93508.38;5009807;28;20462;-68
2023/11/03 01:23:47;;;;;;;4.47;3.80;;;;;;;7.63;77.07;93506.72;5010177;28;20415;-69
2023/11/03 01:26:13;;;;;;;4.60;3.30;;;;;;;7.35;77.86;93515.06;5009849;28;20502;-65
2023/11/03 01:28:39;;;;;;;3.50;3.20;;;;;;;7.30;78.70;93517.16;5009790;28;20860;-67
2023/11/03 01:31:05;;;;;;;4.70;3.63;;;;;;;7.38;78.55;93527.84;5009678;28;20403;-66
2023/11/03 01:33:31;;;;;;;4.53;3.77;;;;;;;7.53;78.30;93531.03;5021739;28;20191;-66
2023/11/03 01:36:04;;;;;;;7.50;3.70;;;;;;;7.58;78.17;93528.91;5029039;28;20406;-69
2023/11/03 01:38:30;;;;;;;6.60;4.00;;;;;;;7.65;77.09;93530.09;5029377;28;20421;-67
2023/11/03 01:40:56;;;;;;;6.50;3.83;;;;;;;7.60;77.77;93529.63;5028842;28;20584;-67
2023/11/03 01:43:22;;;;;;;4.30;3.90;;;;;;;7.75;76.41;93544.09;5029098;28;20502;-68
2023/11/03 01:45:47;;;;;;;5.20;3.83;;;;;;;7.72;77.15;93533.88;5028420;28;20529;-66
2023/11/03 01:48:13;;;;;;;4.97;4.57;;;;;;;7.62;77.61;93543.38;5028464;28;20195;-66
2023/11/03 01:50:40;;;;;;;4.50;4.10;;;;;;;7.58;78.10;93541.94;5028770;28;20187;-66
2023/11/03 01:53:05;;;;;;;4.60;3.93;;;;;;;7.61;77.68;93529.50;5028953;28;20897;-67
2023/11/03 01:55:32;;;;;;;7.70;3.97;;;;;;;7.68;77.37;93536.84;5029064;28;20424;-67
2023/11/03 01:57:58;;;;;;;10.57;4.43;;;;;;;7.73;77.23;93535.53;5029568;28;20209;-67
2023/11/03 02:00:24;;;;;;;12.43;5.67;;;;;;;7.77;77.29;93539.59;5029306;28;20916;-68
2023/11/03 02:02:52;;;;;;;6.03;4.63;;;;;;;7.81;76.64;93540.16;5029208;28;20486;-67
2023/11/03 02:05:18;;;;;;;9.27;5.77;;;;;;;7.66;77.30;93538.75;5033411;28;20788;-68
2023/11/03 02:07:43;;;;;;;5.30;4.80;;;;;;;7.59;77.33;93534.00;5033820;28;20494;-67
2023/11/03 02:10:09;;;;;;;5.57;5.07;;;;;;;7.39;78.17;93539.94;5034088;28;20201;-67
2023/11/03 02:12:34;;;;;;;5.37;4.70;;;;;;;7.30;78.46;93538.88;5032692;28;20171;-66
2023/11/03 02:15:00;;;;;;;7.60;5.13;;;;;;;7.47;77.93;93536.75;5032560;28;20214;-65
2023/11/03 02:17:26;;;;;;;5.73;5.10;;;;;;;7.28;77.93;93539.97;5033739;28;20191;-65
2023/11/03 02:19:52;;;;;;;5.23;4.80;;;;;;;7.14;79.11;93535.78;5029720;28;20195;-67
2023/11/03 02:22:17;;;;;;;7.10;5.10;;;;;;;7.11;79.46;93538.63;5028521;28;20411;-67
2023/11/03 02:24:43;;;;;;;6.70;6.10;;;;;;;7.19;78.55;93528.44;5028459;28;20179;-66
2023/11/03 02:27:08;;;;;;;6.60;5.60;;;;;;;7.35;78.06;93521.09;5028220;28;20248;-67
2023/11/03 02:29:34;;;;;;;6.80;5.90;;;;;;;7.50;77.63;93528.69;5028068;28;20314;-66
2023/11/03 02:32:00;;;;;;;6.47;5.67;;;;;;;7.57;77.32;93520.25;5027845;28;20179;-67
2023/11/03 02:34:25;;;;;;;9.30;6.23;;;;;;;7.67;77.28;93522.13;5008130;28;20219;-68
2023/11/03 02:36:52;;;;;;;7.73;6.47;;;;;;;7.61;77.13;93519.06;5008149;28;20176;-67
2023/11/03 02:39:18;;;;;;;7.47;5.30;;;;;;;7.62;76.37;93518.09;5008640;28;20198;-68
2023/11/03 02:41:43;;;;;;;8.23;6.00;;;;;;;7.63;76.59;93526.78;5008745;28;20474;-68
2023/11/03 02:44:09;;;;;;;7.93;6.63;;;;;;;7.49;76.63;93529.63;5008685;28;20254;-67
2023/11/03 02:46:34;;;;;;;7.40;6.20;;;;;;;7.30;77.58;93527.59;5009240;28;20707;-66
2023/11/03 02:48:59;;;;;;;7.67;6.27;;;;;;;7.31;77.42;93532.72;5009171;28;20195;-68
2023/11/03 02:51:25;;;;;;;6.00;5.40;;;;;;;7.37;77.71;93526.19;5008924;28;20207;-67
2023/11/03 02:53:50;;;;;;;10.70;6.13;;;;;;;7.36;76.82;93521.94;5008485;28;20180;-65
2023/11/03 02:56:23;;;;;;;11.20;6.33;;;;;;;7.27;77.07;93525.25;5009104;28;20271;-67
2023/11/03 02:58:49;;;;;;;9.10;6.20;;;;;;;7.32;77.68;93518.75;5009238;28;20206;-68
2023/11/03 03:01:15;;;;;;;10.30;6.30;;;;;;;7.41;76.34;93518.00;5009121;28;20961;-67
2023/11/03 03:03:41;;;;;;;8.07;6.60;;;;;;;7.52;76.41;93519.78;5008537;28;20180;-67
2023/11/03 03:06:06;;;;;;;7.30;6.57;;;;;;;7.59;75.48;93523.56;5008481;28;20748;-68
2023/11/03 03:08:32;;;;;;;8.07;6.80;;;;;;;7.40;76.11;93524.19;5008080;28;20203;-68
2023/11/03 03:10:58;;;;;;;7.00;6.30;;;;;;;7.37;76.69;93523.56;5006874;28;20168;-67
2023/11/03 03:13:23;;;;;;;7.87;6.77;;;;;;;7.37;76.10;93514.00;5008334;28;20716;-68
2023/11/03 03:15:48;;;;;;;8.17;5.93;;;;;;;7.46;76.64;93514.22;5006196;28;20211;-67
2023/11/03 03:18:14;;;;;;;8.40;6.70;;;;;;;7.45;76.08;93504.72;5007886;28;20574;-67
2023/11/03 03:20:39;;;;;;;12.43;7.20;;;;;;;7.46;76.05;93502.00;5007840;28;20277;-67
2023/11/03 03:23:04;;;;;;;7.47;6.27;;;;;;;7.39;76.64;93509.50;5008144;28;20183;-67
2023/11/03 03:25:30;;;;;;;10.50;7.43;;;;;;;7.34;77.14;93513.38;5007636;28;20172;-68
2023/11/03 03:27:56;;;;;;;11.10;6.23;;;;;;;7.25;76.36;93508.88;5007724;28;20297;-67
2023/11/03 03:30:21;;;;;;;7.90;6.50;;;;;;;7.21;76.60;93511.72;5008619;28;20279;-66
2023/11/03 03:32:46;;;;;;;7.63;6.60;;;;;;;7.30;76.19;93502.38;5014330;28;20178;-67
2023/11/03 03:35:12;;;;;;;7.43;6.57;;;;;;;7.34;76.00;93490.72;5028111;28;20183;-69
2023/11/03 03:37:37;;;;;;;9.27;8.20;;;;;;;7.35;76.27;93495.00;5028030;28;20678;-68
2023/11/03 03:40:06;;;;;;;9.17;7.53;;;;;;;7.28;76.56;93493.84;5028021;28;20559;-67
2023/11/03 03:42:31;;;;;;;7.73;6.67;;;;;;;7.34;76.98;93498.56;5027639;28;20274;-67
2023/11/03 03:44:57;;;;;;;11.80;7.67;;;;;;;7.35;76.51;93500.22;5027767;28;20506;-68
2023/11/03 03:47:22;;;;;;;14.27;7.60;;;;;;;7.33;76.51;93496.91;5027306;28;20199;-68
2023/11/03 03:49:47;;;;;;;16.50;8.43;;;;;;;7.35;75.97;93499.41;5027761;28;20179;-67
2023/11/03 03:52:13;;;;;;;9.20;7.13;;;;;;;7.37;75.87;93507.91;5027722;28;20183;-68
2023/11/03 03:54:38;;;;;;;8.83;7.33;;;;;;;7.45;76.40;93509.97;5027043;28;20175;-67
2023/11/03 03:57:04;;;;;;;10.37;7.53;;;;;;;7.39;75.81;93500.81;5027354;28;20196;-65
2023/11/03 03:59:29;;;;;;;13.53;7.50;;;;;;;7.38;76.08;93510.41;5027441;28;20171;-67
2023/11/03 04:01:54;;;;;;;10.27;8.37;;;;;;;7.41;76.43;93501.53;5027503;28;20211;-66
2023/11/03 04:04:20;;;;;;;9.80;6.73;;;;;;;7.34;76.12;93505.56;5027441;28;20194;-66
2023/11/03 04:06:46;;;;;;;11.07;7.60;;;;;;;7.36;76.34;93524.53;5027163;28;20188;-67
2023/11/03 04:09:12;;;;;;;9.23;7.27;;;;;;;7.38;76.14;93533.91;5026815;28;20524;-67
2023/11/03 04:11:37;;;;;;;8.97;7.30;;;;;;;7.34;75.62;93542.91;5026679;28;20410;-67
2023/11/03 04:14:03;;;;;;;10.00;8.40;;;;;;;7.35;76.31;93546.38;5026521;28;20179;-68
2023/11/03 04:16:33;;;;;;;8.60;7.27;;;;;;;7.24;76.27;93544.56;5027298;28;20246;-68
2023/11/03 04:18:58;;;;;;;10.27;6.87;;;;;;;7.26;75.53;93545.28;5026829;28;20203;-68
2023/11/03 04:21:23;;;;;;;8.93;7.90;;;;;;;7.18;76.33;93553.69;5027228;28;20488;-68
2023/11/03 04:23:49;;;;;;;8.23;7.10;;;;;;;7.19;75.73;93551.91;5027261;28;20192;-67
2023/11/03 04:26:14;;;;;;;10.50;6.40;;;;;;;7.17;75.85;93548.59;5026941;28;20183;-68
2023/11/03 04:28:40;;;;;;;7.43;5.97;;;;;;;7.16;75.58;93546.94;5030424;28;20691;-68
2023/11/03 04:31:06;;;;;;;7.40;5.80;;;;;;;7.17;75.71;93538.16;5032100;28;20225;-68
2023/11/03 04:33:31;;;;;;;6.70;5.80;;;;;;;7.10;76.47;93542.19;5027235;28;20176;-68
2023/11/03 04:35:57;;;;;;;9.23;6.40;;;;;;;7.07;76.19;93543.25;5011953;28;20411;-67
2023/11/03 04:38:22;;;;;;;7.90;6.33;;;;;;;7.19;76.01;93529.28;5011606;28;20199;-68
2023/11/03 04:40:48;;;;;;;7.23;6.53;;;;;;;7.09;75.77;93541.34;5012039;28;20212;-68
2023/11/03 04:43:13;;;;;;;8.17;7.00;;;;;;;7.07;76.09;93534.59;5011671;28;20658;-67
2023/11/03 04:45:38;;;;;;;9.27;7.20;;;;;;;7.03;76.71;93539.22;5011715;28;20219;-67
2023/11/03 04:48:04;;;;;;;11.27;6.90;;;;;;;7.04;76.32;93550.47;5011509;28;20230;-68
2023/11/03 04:50:30;;;;;;;8.93;7.27;;;;;;;7.16;76.37;93536.50;5011531;28;20176;-67
2023/11/03 04:52:56;;;;;;;7.90;7.10;;;;;;;7.21;75.82;93542.19;5011577;28;20187;-67
2023/11/03 04:55:22;;;;;;;9.93;6.77;;;;;;;7.24;75.21;93543.75;5011449;28;21227;-68
2023/11/03 04:57:47;;;;;;;9.13;6.80;;;;;;;7.26;75.60;93540.06;5011868;28;20199;-68
2023/11/03 05:00:13;;;;;;;7.83;6.60;;;;;;;7.22;75.20;93549.06;5011285;28;20199;-67
2023/11/03 05:02:38;;;;;;;8.17;6.97;;;;;;;7.20;74.77;93544.00;5011548;28;20184;-67
2023/11/03 05:05:05;;;;;;;7.20;5.57;;;;;;;7.17;75.08;93548.59;5011260;28;20227;-68
2023/11/03 05:07:33;;;;;;;7.57;6.80;;;;;;;7.13;75.12;93550.59;5011006;28;20241;-68
2023/11/03 05:09:59;;;;;;;7.77;6.97;;;;;;;7.17;75.63;93544.19;5011250;28;20446;-68
2023/11/03 05:12:25;;;;;;;10.60;6.87;;;;;;;7.04;76.16;93548.72;5010814;28;20443;-68
2023/11/03 05:14:50;;;;;;;10.33;7.23;;;;;;;7.06;76.09;93540.75;5011084;28;20438;-67
2023/11/03 05:17:16;;;;;;;15.00;8.93;;;;;;;7.14;75.47;93548.84;5011324;28;20192;-66
2023/11/03 05:19:41;;;;;;;11.60;6.90;;;;;;;7.14;75.46;93554.88;5010853;28;20169;-67
2023/11/03 05:22:07;;;;;;;9.13;6.20;;;;;;;7.14;76.15;93554.88;5011273;28;20188;-68
2023/11/03 05:24:32;;;;;;;9.43;6.27;;;;;;;7.15;75.44;93547.88;5010368;28;20254;-69
2023/11/03 05:26:57;;;;;;;10.37;6.50;;;;;;;7.15;75.97;93550.47;5010696;28;20180;-68
2023/11/03 05:29:23;;;;;;;7.73;6.57;;;;;;;7.14;76.19;93547.06;5011292;28;20252;-66
2023/11/03 05:31:52;;;;;;;9.37;6.13;;;;;;;7.15;76.19;93534.84;5011006;28;20247;-68
2023/11/03 05:34:19;;;;;;;11.50;6.73;;;;;;;7.20;75.91;93532.69;5010042;28;20180;-66
2023/11/03 05:36:45;;;;;;;9.37;6.87;;;;;;;7.20;75.71;93527.47;5010354;28;20422;-66
2023/11/03 05:39:12;;;;;;;8.13;6.47;;;;;;;7.20;76.32;93528.34;5009894;28;20181;-67
2023/11/03 05:41:37;;;;;;;8.23;7.00;;;;;;;7.28;75.31;93529.53;5008965;28;21024;-68
2023/11/03 05:44:03;;;;;;;10.20;6.97;;;;;;;7.12;76.14;93532.47;5008697;28;20518;-67
2023/11/03 05:46:28;;;;;;;6.87;6.13;;;;;;;7.17;75.85;93531.16;5010250;28;20184;-68
2023/11/03 05:48:54;;;;;;;9.47;6.67;;;;;;;7.21;75.78;93531.78;5009959;28;20566;-67
2023/11/03 05:51:22;;;;;;;12.97;6.80;;;;;;;7.23;75.43;93532.50;5010133;28;20176;-67
2023/11/03 05:53:48;;;;;;;13.30;6.60;;;;;;;7.25;74.90;93533.16;5010342;28;20266;-67
2023/11/03 05:56:14;;;;;;;8.73;5.77;;;;;;;7.30;75.06;93535.44;5009680;28;21213;-66
2023/11/03 05:58:40;;;;;;;10.00;5.10;;;;;;;7.24;74.37;93531.53;5011690;28;20516;-68
2023/11/03 06:01:07;;;;;;;11.53;4.80;;;;;;;7.25;74.95;93532.34;5012619;28;20478;-67
2023/11/03 06:03:32;;;;;;;18.43;5.83;;;;;;;7.20;74.45;93532.69;5011754;28;20275;-69
2023/11/03 06:05:58;;;;;;;18.70;6.67;;;;;;;7.18;74.92;93539.81;5013620;28;20510;-67
2023/11/03 06:08:24;;;;;;;9.10;5.13;;;;;;;7.24;74.26;93546.34;5016264;28;20269;-66
2023/11/03 06:10:50;;;;;;;9.57;5.73;;;;;;;7.21;74.12;93547.41;5017598;28;20172;-68
2023/11/03 06:13:16;;;;;;;10.63;6.13;;;;;;;7.26;74.77;93552.28;5016395;28;20426;-67
2023/11/03 06:15:42;;;;;;;8.40;5.50;;;;;;;7.32;73.83;93557.00;5017221;28;20281;-66
2023/11/03 06:18:08;;;;;;;22.03;6.50;;;;;;;7.32;74.73;93562.22;5017183;28;20929;-67
2023/11/03 06:20:34;;;;;;;9.73;5.70;;;;;;;7.30;74.43;93570.19;5016823;28;20314;-67
2023/11/03 06:22:59;;;;;;;10.40;4.73;;;;;;;7.25;75.39;93581.91;5015305;28;20451;-66
2023/11/03 06:25:24;;;;;;;9.90;5.20;;;;;;;7.22;74.97;93581.19;5011818;28;20180;-67
2023/11/03 06:27:50;;;;;;;6.77;5.60;;;;;;;7.26;75.14;93584.41;5009322;28;20235;-66
2023/11/03 06:30:15;;;;;;;12.20;7.20;;;;;;;7.32;74.49;93589.16;5008581;28;20168;-65
2023/11/03 06:32:40;;;;;;;10.13;7.23;;;;;;;7.34;74.61;93592.47;5008703;28;20173;-67
2023/11/03 06:35:06;;;;;;;11.47;7.30;;;;;;;7.41;75.13;93595.44;5009542;28;20176;-66
2023/11/03 06:37:32;;;;;;;13.93;7.60;;;;;;;7.45;74.86;93609.91;5008569;28;20188;-67
2023/11/03 06:39:57;;;;;;;12.20;8.83;;;;;;;7.38;74.95;93600.91;5008436;28;20198;-66
2023/11/03 06:42:23;;;;;;;15.20;6.60;;;;;;;7.33;75.08;93601.25;5009485;28;20215;-68
2023/11/03 06:44:49;;;;;;;10.20;7.77;;;;;;;7.30;75.08;93605.84;5008099;28;20665;-67
2023/11/03 06:47:14;;;;;;;12.90;8.17;;;;;;;7.21;75.85;93608.22;5007985;28;20431;-68
2023/11/03 06:49:44;;;;;;;9.50;7.70;;;;;;;7.20;75.78;93613.56;5008639;28;20252;-66
2023/11/03 06:52:10;;;;;;;10.73;7.70;;;;;;;7.16;75.64;93618.19;5008866;28;20258;-66
2023/11/03 06:54:35;;;;;;;10.87;7.50;;;;;;;7.24;76.25;93622.00;5009253;28;20450;-68
2023/11/03 06:57:00;;;;;;;15.00;7.90;;;;;;;7.16;75.77;93620.78;5009212;28;20194;-68
2023/11/03 06:59:26;;;;;;;9.43;6.40;;;;;;;7.15;76.57;93619.09;5010092;28;20244;-67
2023/11/03 07:01:52;;;;;;;11.90;6.97;;;;;;;7.27;76.27;93619.97;5008261;28;20204;-67
2023/11/03 07:04:17;;;;;;;8.90;5.80;;;;;;;7.33;76.16;93614.28;5009036;28;20754;-68
2023/11/03 07:06:42;;;;;;;13.60;6.83;;;;;;;7.35;75.15;93619.41;5009232;28;20262;-66
2023/11/03 07:09:10;;;;;;;8.33;6.10;;;;;;;7.45;75.68;93617.75;5008253;28;20266;-69
2023/11/03 07:11:35;;;;;;;31.10;6.90;;;;;;;7.42;75.43;93620.59;5009338;28;20691;-68
2023/11/03 07:14:01;;;;;;;14.20;7.87;;;;;;;7.43;75.16;93623.06;5008939;28;20482;-66
2023/11/03 07:16:26;;;;;;;11.70;6.00;;;;;;;7.40;75.49;93622.50;5009089;28;20314;-68
2023/11/03 07:18:51;;;;;;;12.13;6.10;;;;;;;7.46;75.12;93621.19;5009312;28;20296;-67
2023/11/03 07:21:17;;;;;;;8.03;5.73;;;;;;;7.41;75.79;93621.53;5007874;28;20204;-69
2023/11/03 07:23:42;;;;;;;10.43;5.93;;;;;;;7.52;74.57;93629.38;5009097;28;21126;-67
2023/11/03 07:26:08;;;;;;;10.93;5.50;;;;;;;7.53;75.21;93627.59;5009166;28;20225;-67
2023/11/03 07:28:33;;;;;;;31.67;13.70;;;;;;;7.29;75.42;93625.06;5008990;28;20246;-68
2023/11/03 07:30:58;;;;;;;13.33;6.50;;;;;;;7.41;75.74;93619.75;5009358;28;20243;-67
2023/11/03 07:33:24;;;;;;;77.27;12.90;;;;;;;7.38;75.63;93620.00;5020071;28;20175;-67
2023/11/03 07:35:49;;;;;;;17.63;6.00;;;;;;;7.59;74.92;93617.53;5028776;28;20178;-68
2023/11/03 07:38:15;;;;;;;20.80;6.47;;;;;;;7.71;74.52;93620.97;5027660;28;20199;-67
2023/11/03 07:40:41;;;;;;;13.70;5.40;;;;;;;7.49;74.52;93634.84;5026977;28;20210;-67
2023/11/03 07:43:06;;;;;;;17.37;5.50;;;;;;;7.54;75.47;93634.50;5028745;28;20274;-68
2023/11/03 07:45:35;;;;;;;59.70;9.83;;;;;;;7.47;75.24;93634.13;5027178;28;20501;-69
2023/11/03 07:48:01;;;;;;;9.70;5.43;;;;;;;7.43;74.98;93630.91;5028856;28;20334;-68
2023/11/03 07:50:26;;;;;;;6.53;5.00;;;;;;;7.37;74.95;93628.78;5028739;28;20497;-68
2023/11/03 07:52:52;;;;;;;9.07;4.60;;;;;;;7.49;75.38;93631.38;5029301;28;20969;-69
2023/11/03 07:55:18;;;;;;;9.97;5.17;;;;;;;7.55;74.94;93638.75;5028908;28;21004;-67
2023/11/03 07:57:43;;;;;;;6.43;4.80;;;;;;;7.54;74.25;93639.72;5029183;28;20202;-67
2023/11/03 08:00:10;;;;;;;5.13;4.10;;;;;;;7.43;74.99;93643.94;5028680;28;20306;-66
2023/11/03 08:02:37;;;;;;;6.87;5.40;;;;;;;7.46;75.13;93653.31;5027381;28;20182;-67
2023/11/03 08:05:07;;;;;;;11.53;6.23;;;;;;;7.52;74.30;93657.25;5028531;28;20420;-68
2023/11/03 08:07:36;;;;;;;7.70;5.53;;;;;;;7.51;74.98;93666.00;5028211;28;20446;-67
2023/11/03 08:10:05;;;;;;;27.17;5.60;;;;;;;7.54;74.47;93664.03;5028548;28;20511;-67
2023/11/03 08:12:33;;;;;;;14.13;5.33;;;;;;;7.50;75.52;93666.97;5028789;28;20410;-68
2023/11/03 08:14:59;;;;;;;11.77;4.60;;;;;;;7.65;75.58;93671.03;5029731;28;20433;-67
2023/11/03 08:17:25;;;;;;;8.80;5.80;;;;;;;7.51;75.65;93666.00;5032692;28;20430;-70
2023/11/03 08:19:51;;;;;;;9.50;6.50;;;;;;;7.41;76.65;93671.09;5046925;28;20195;-67
2023/11/03 08:22:17;;;;;;;7.93;5.63;;;;;;;7.58;75.74;93664.59;5049254;28;20421;-68
2023/11/03 08:24:43;;;;;;;10.50;5.90;;;;;;;7.64;75.27;93672.81;5048528;28;20172;-69
2023/11/03 08:27:09;;;;;;;5.83;5.23;;;;;;;7.57;75.99;93665.56;5032174;28;20923;-67
2023/11/03 08:29:34;;;;;;;7.23;5.70;;;;;;;7.61;75.65;93667.00;5029351;28;20402;-67
2023/11/03 08:32:00;;;;;;;6.30;5.57;;;;;;;7.68;75.14;93665.59;5028464;28;20176;-67
2023/11/03 08:34:25;;;;;;;6.70;5.80;;;;;;;7.62;75.14;93663.44;5008926;28;20187;-66
2023/11/03 08:36:51;;;;;;;9.40;6.13;;;;;;;7.63;75.54;93671.16;5008180;28;20258;-68
2023/11/03 08:39:17;;;;;;;6.33;5.27;;;;;;;7.66;75.05;93670.09;5008654;28;20198;-67
2023/11/03 08:41:42;;;;;;;10.50;5.27;;;;;;;7.74;75.63;93667.72;5008531;28;20206;-67
2023/11/03 08:44:08;;;;;;;12.07;5.57;;;;;;;7.76;75.17;93665.00;5008225;28;20420;-69
2023/11/03 08:46:34;;;;;;;20.37;5.90;;;;;;;7.79;74.77;93670.78;5008637;28;20521;-70
2023/11/03 08:48:59;;;;;;;13.77;6.90;;;;;;;7.73;75.20;93673.88;5009228;28;20188;-68
2023/11/03 08:51:26;;;;;;;11.63;6.20;;;;;;;7.83;75.18;93674.84;5008018;28;20342;-66
2023/11/03 08:53:52;;;;;;;21.13;6.80;;;;;;;7.92;74.97;93669.88;5008008;28;20176;-69
2023/11/03 08:56:18;;;;;;;19.13;6.47;;;;;;;7.96;74.62;93682.56;5007539;28;21029;-67
2023/11/03 08:58:43;;;;;;;13.73;6.13;;;;;;;7.90;75.02;93677.81;5008376;28;20198;-69
2023/11/03 09:01:11;;;;;;;11.30;6.97;;;;;;;7.79;75.85;93686.47;5008374;28;20258;-67
2023/11/03 09:03:37;;;;;;;12.40;7.50;;;;;;;7.83;75.28;93680.06;5006190;28;20826;-67
2023/11/03 09:06:03;;;;;;;10.40;7.83;;;;;;;7.92;75.19;93675.91;5007517;28;20410;-68
2023/11/03 09:08:29;;;;;;;11.10;8.03;;;;;;;7.89;75.26;93685.75;5007659;28;20283;-68
2023/11/03 09:10:54;;;;;;;9.03;7.97;;;;;;;7.85;76.22;93688.59;5008135;28;20519;-66
2023/11/03 09:13:20;;;;;;;12.00;9.13;;;;;;;7.87;75.28;93682.47;5011999;28;20315;-68
2023/11/03 09:15:47;;;;;;;12.03;8.30;;;;;;;7.83;75.52;93687.91;5011488;28;20180;-66
2023/11/03 09:18:12;;;;;;;14.97;8.20;;;;;;;7.91;75.43;93687.28;5011015;28;20192;-67
2023/11/03 09:20:38;;;;;;;20.60;8.43;;;;;;;7.96;75.44;93692.16;5010566;28;20582;-68
2023/11/03 09:23:04;;;;;;;11.47;8.27;;;;;;;8.00;75.92;93697.03;5010867;28;20258;-66
2023/11/03 09:25:30;;;;;;;19.27;11.50;;;;;;;7.95;76.40;93693.13;5008671;28;20180;-65
2023/11/03 09:27:56;;;;;;;13.50;8.37;;;;;;;7.92;76.19;93688.97;5010589;28;20489;-68
2023/11/03 09:30:22;;;;;;;11.30;8.03;;;;;;;8.03;75.31;93681.16;5011261;28;20446;-67
2023/11/03 09:32:48;;;;;;;7.87;7.07;;;;;;;8.09;75.58;93682.44;5017206;28;20175;-68
2023/11/03 09:35:14;;;;;;;16.90;11.07;;;;;;;8.03;75.97;93682.91;5030471;28;20540;-68
2023/11/03 09:37:40;;;;;;;12.63;7.93;;;;;;;8.19;74.70;93683.38;5031104;28;20429;-66
2023/11/03 09:40:10;;;;;;;19.53;6.70;;;;;;;8.14;75.13;93680.28;5030601;28;20478;-68
2023/11/03 09:42:36;;;;;;;8.13;6.10;;;;;;;8.08;75.57;93686.03;5029336;28;20864;-68
2023/11/03 09:45:09;;;;;;;7.33;5.47;;;;;;;8.19;74.54;93685.16;5029556;28;20513;-68
2023/11/03 09:47:36;;;;;;;14.00;6.30;;;;;;;8.35;74.51;93684.81;5029100;28;20445;-68
2023/11/03 09:50:02;;;;;;;7.80;5.40;;;;;;;8.31;74.56;93681.59;5029007;28;20448;-68
2023/11/03 09:52:38;;;;;;;7.43;4.80;;;;;;;8.33;74.24;93684.09;5029182;28;20841;-68
2023/11/03 09:55:08;;;;;;;7.57;5.00;;;;;;;8.19;75.10;93682.56;5027788;28;20175;-67
2023/11/03 09:57:33;;;;;;;8.40;5.73;;;;;;;8.25;74.17;93684.69;5029487;28;20442;-68
2023/11/03 10:00:00;;;;;;;7.00;5.30;;;;;;;8.26;74.83;93692.41;5029421;28;20406;-68
2023/11/03 10:02:26;;;;;;;21.03;6.33;;;;;;;8.32;74.00;93687.66;5028696;28;20170;-69
2023/11/03 10:04:52;;;;;;;8.67;5.50;;;;;;;8.33;73.94;93684.09;5029600;28;20852;-67
2023/11/03 10:07:17;;;;;;;7.90;5.30;;;;;;;8.39;74.21;93688.84;5030157;28;20451;-68
2023/11/03 10:09:43;;;;;;;8.07;4.80;;;;;;;8.33;74.03;93689.31;5030801;28;20249;-68
2023/11/03 10:12:17;;;;;;;10.00;4.80;;;;;;;8.47;73.75;93691.69;5030795;28;20723;-68
2023/11/03 10:14:46;;;;;;;17.30;6.30;;;;;;;8.40;73.65;93690.53;5030108;28;20187;-68
2023/11/03 10:17:14;;;;;;;7.30;5.50;;;;;;;8.38;73.83;93697.63;5032292;28;20466;-66
2023/11/03 10:19:39;;;;;;;13.10;5.70;;;;;;;8.46;73.25;93700.50;5031733;28;20816;-68
2023/11/03 10:22:11;;;;;;;9.87;4.10;;;;;;;8.46;72.77;93695.28;5032646;28;20493;-68
2023/11/03 10:24:37;;;;;;;10.97;4.90;;;;;;;8.53;72.90;93699.06;5031817;28;20778;-67
2023/11/03 10:27:03;;;;;;;6.83;4.03;;;;;;;8.48;72.67;93693.38;5033293;28;20460;-68
2023/11/03 10:29:30;;;;;;;5.90;3.70;;;;;;;8.53;73.16;93699.06;5030584;28;20418;-67
2023/11/03 10:31:55;;;;;;;7.03;3.80;;;;;;;8.64;72.01;93683.34;5030337;28;20901;-66
2023/11/03 10:34:22;;;;;;;20.17;4.50;;;;;;;8.68;71.90;93686.56;5009658;28;20486;-68
2023/11/03 10:36:49;;;;;;;11.60;3.73;;;;;;;8.73;72.22;93688.81;5008663;28;20262;-68
2023/11/03 10:39:16;;;;;;;4.97;3.47;;;;;;;8.66;72.20;93697.13;5008710;28;20407;-68
2023/11/03 10:41:43;;;;;;;5.40;3.97;;;;;;;8.68;71.58;93687.38;5009453;28;20454;-68
2023/11/03 10:44:13;;;;;;;7.80;3.40;;;;;;;8.73;71.58;93694.03;5008416;28;20419;-68
2023/11/03 10:46:44;;;;;;;13.40;3.93;;;;;;;8.77;71.65;93693.66;5008743;28;20415;-67
2023/11/03 10:49:18;;;;;;;7.17;3.17;;;;;;;8.71;71.47;93685.47;5008965;28;20442;-67
2023/11/03 10:52:13;;;;;;;12.70;3.37;;;;;;;8.74;71.21;93687.84;5008753;28;20402;-68
2023/11/03 10:55:04;;;;;;;15.47;4.07;;;;;;;9.28;79.09;93692.16;5006838;28;20423;-67
2023/11/03 10:57:31;;;;;;;14.20;5.00;;;;;;;10.44;78.05;93691.16;5009948;28;20435;-67
2023/11/03 11:00:10;;;;;;;15.10;4.30;;;;;;;10.02;68.26;93693.88;5009419;28;20501;-67
2023/11/03 11:02:49;;;;;;;11.73;3.93;;;;;;;9.39;68.98;93699.97;5008601;28;20407;-69
2023/11/03 11:05:33;;;;;;;13.43;3.47;;;;;;;9.05;69.87;93696.69;5022779;28;20419;-68
2023/11/03 11:08:04;;;;;;;7.57;3.63;;;;;;;9.17;70.19;93697.47;5008532;28;20418;-67
2023/11/03 11:10:40;;;;;;;5.30;2.90;;;;;;;9.11;69.78;93694.38;5008346;28;20861;-67
2023/11/03 11:13:17;;;;;;;6.13;2.97;;;;;;;9.06;69.80;93688.69;5008533;28;20411;-67
2023/11/03 11:15:55;;;;;;;4.17;2.70;;;;;;;9.10;69.85;93690.09;5007561;28;20437;-69
2023/11/03 11:18:21;;;;;;;5.80;3.73;;;;;;;9.22;69.59;93688.28;5010707;28;20427;-66
2023/11/03 11:20:53;;;;;;;5.77;2.77;;;;;;;9.11;69.87;93690.94;5014820;28;20513;-68
2023/11/03 11:23:22;;;;;;;4.17;3.30;;;;;;;9.08;69.77;93692.00;5008610;28;20210;-67
2023/11/03 11:25:50;;;;;;;6.57;3.40;;;;;;;9.11;69.94;93694.38;5006426;28;20497;-67
2023/11/03 11:28:38;;;;;;;3.60;3.00;;;;;;;9.23;70.13;93695.16;5007750;28;20517;-67
2023/11/03 11:31:22;;;;;;;6.07;3.70;;;;;;;9.19;69.41;93691.16;5007637;28;20414;-68
2023/11/03 11:34:26;;;;;;;5.30;2.80;;;;;;;9.17;69.95;93684.38;5021842;28;20418;-68
2023/11/03 11:36:54;;;;;;;10.20;3.57;;;;;;;9.15;69.57;93684.50;5024431;28;20426;-68